AAL2341 KPHX-KLAX
Flight info
| Callsign | AAL2341 |
|---|---|
| Flight time | 0h 57m |
| Altitude | 36000 |
| Route | KEENS3 WLVRN ESTWD HLYWD1 |
| Aircraft | A321/M-SDE3FGHIRWY/LB1 |
Departure
| Time | 2026-04-23 21:30 |
|---|---|
| Airport | Phoenix Sky Harbor International Airport (KPHX) |
Arrival
| Time | 2026-04-23 22:27 |
|---|---|
| Airport | Los Angeles International Airport (KLAX) |
| Time | Latitude | Longitude | Altitude | Speed | Heading |
|---|---|---|---|---|---|
| 2026-04-23 21:07 | 33.43752 | -111.99620 | 1124 ft | 0 kts | 270° |
| 2026-04-23 21:22 | 33.43752 | -111.99612 | 1117 ft | 4 kts | 271° |
| 2026-04-23 21:22 | 33.43747 | -111.99585 | 1115 ft | 4 kts | 322° |
| 2026-04-23 21:22 | 33.43724 | -111.99576 | 1117 ft | 3 kts | 359° |
| 2026-04-23 21:22 | 33.43720 | -111.99576 | 1116 ft | 0 kts | 359° |
| 2026-04-23 21:25 | 33.43745 | -111.99576 | 1120 ft | 8 kts | 359° |
| 2026-04-23 21:25 | 33.43804 | -111.99577 | 1121 ft | 9 kts | 0° |
| 2026-04-23 21:26 | 33.43880 | -111.99569 | 1120 ft | 12 kts | 25° |
| 2026-04-23 21:26 | 33.43903 | -111.99468 | 1124 ft | 15 kts | 90° |
| 2026-04-23 21:26 | 33.43904 | -111.99334 | 1124 ft | 14 kts | 90° |
| 2026-04-23 21:26 | 33.43873 | -111.99233 | 1124 ft | 14 kts | 158° |
| 2026-04-23 21:27 | 33.43771 | -111.99226 | 1119 ft | 16 kts | 180° |
| 2026-04-23 21:27 | 33.43647 | -111.99227 | 1120 ft | 18 kts | 180° |
| 2026-04-23 21:27 | 33.43533 | -111.99227 | 1120 ft | 16 kts | 179° |
| 2026-04-23 21:27 | 33.43419 | -111.99243 | 1120 ft | 17 kts | 191° |
| 2026-04-23 21:28 | 33.43299 | -111.99247 | 1122 ft | 18 kts | 180° |
| 2026-04-23 21:28 | 33.43213 | -111.99260 | 1121 ft | 10 kts | 210° |
| 2026-04-23 21:28 | 33.43156 | -111.99322 | 1113 ft | 12 kts | 222° |
| 2026-04-23 21:28 | 33.43106 | -111.99403 | 1122 ft | 13 kts | 259° |
| 2026-04-23 21:29 | 33.43104 | -111.99424 | 1123 ft | 0 kts | 269° |
| 2026-04-23 21:29 | 33.43104 | -111.99463 | 1123 ft | 16 kts | 269° |
| 2026-04-23 21:29 | 33.43104 | -111.99907 | 1124 ft | 89 kts | 270° |
| 2026-04-23 21:30 | 33.43104 | -112.00885 | 1125 ft | 146 kts | 270° |
| 2026-04-23 21:30 | 33.43098 | -112.02231 | 1432 ft | 165 kts | 268° |
| 2026-04-23 21:30 | 33.43078 | -112.03591 | 2153 ft | 163 kts | 267° |
| 2026-04-23 21:30 | 33.43021 | -112.04975 | 2539 ft | 175 kts | 265° |
| 2026-04-23 21:31 | 33.42935 | -112.06506 | 2710 ft | 194 kts | 264° |
| 2026-04-23 21:31 | 33.42698 | -112.08169 | 2844 ft | 214 kts | 249° |
| 2026-04-23 21:31 | 33.42120 | -112.09926 | 2976 ft | 240 kts | 249° |
| 2026-04-23 21:31 | 33.41497 | -112.11855 | 3451 ft | 255 kts | 249° |
| 2026-04-23 21:32 | 33.40862 | -112.13854 | 4234 ft | 259 kts | 248° |
| 2026-04-23 21:32 | 33.40227 | -112.15874 | 5074 ft | 261 kts | 250° |
| 2026-04-23 21:32 | 33.39587 | -112.17929 | 5851 ft | 265 kts | 249° |
| 2026-04-23 21:32 | 33.39158 | -112.20069 | 6634 ft | 268 kts | 270° |
| 2026-04-23 21:33 | 33.39465 | -112.22269 | 7392 ft | 271 kts | 287° |
| 2026-04-23 21:33 | 33.40038 | -112.24423 | 8192 ft | 272 kts | 286° |
| 2026-04-23 21:33 | 33.40604 | -112.26584 | 9008 ft | 272 kts | 286° |
| 2026-04-23 21:33 | 33.41169 | -112.28749 | 9834 ft | 272 kts | 286° |
| 2026-04-23 21:34 | 33.41742 | -112.30935 | 10377 ft | 283 kts | 286° |
| 2026-04-23 21:34 | 33.42355 | -112.33273 | 10524 ft | 306 kts | 286° |
| 2026-04-23 21:34 | 33.43013 | -112.35786 | 10758 ft | 324 kts | 286° |
| 2026-04-23 21:34 | 33.43694 | -112.38384 | 11329 ft | 330 kts | 286° |
| 2026-04-23 21:35 | 33.44383 | -112.41018 | 12007 ft | 332 kts | 285° |
| 2026-04-23 21:35 | 33.45076 | -112.43662 | 12701 ft | 334 kts | 285° |
| 2026-04-23 21:35 | 33.45777 | -112.46325 | 13436 ft | 336 kts | 285° |
| 2026-04-23 21:35 | 33.46482 | -112.49005 | 14099 ft | 338 kts | 285° |
| 2026-04-23 21:36 | 33.47891 | -112.54383 | 15327 ft | 342 kts | 285° |
| 2026-04-23 21:36 | 33.48602 | -112.57110 | 15960 ft | 344 kts | 285° |
| 2026-04-23 21:36 | 33.49318 | -112.59864 | 16579 ft | 347 kts | 285° |
| 2026-04-23 21:37 | 33.50036 | -112.62636 | 17221 ft | 350 kts | 285° |
| 2026-04-23 21:37 | 33.50757 | -112.65424 | 17865 ft | 352 kts | 285° |
| 2026-04-23 21:37 | 33.51485 | -112.68229 | 18448 ft | 354 kts | 285° |
| 2026-04-23 21:37 | 33.52220 | -112.71057 | 18978 ft | 356 kts | 285° |
| 2026-04-23 21:38 | 33.52958 | -112.73897 | 19511 ft | 359 kts | 285° |
| 2026-04-23 21:38 | 33.53701 | -112.76765 | 20039 ft | 361 kts | 285° |
| 2026-04-23 21:38 | 33.54448 | -112.79651 | 20573 ft | 364 kts | 285° |
| 2026-04-23 21:38 | 33.55199 | -112.82556 | 21087 ft | 366 kts | 285° |
| 2026-04-23 21:39 | 33.55956 | -112.85488 | 21591 ft | 369 kts | 285° |
| 2026-04-23 21:39 | 33.56717 | -112.88436 | 22082 ft | 371 kts | 285° |
| 2026-04-23 21:39 | 33.57484 | -112.91406 | 22558 ft | 374 kts | 285° |
| 2026-04-23 21:39 | 33.58254 | -112.94393 | 23022 ft | 376 kts | 285° |
| 2026-04-23 21:40 | 33.59024 | -112.97400 | 23481 ft | 379 kts | 285° |
| 2026-04-23 21:40 | 33.59799 | -113.00427 | 23859 ft | 381 kts | 285° |
| 2026-04-23 21:40 | 33.60578 | -113.03475 | 24254 ft | 382 kts | 285° |
| 2026-04-23 21:40 | 33.61361 | -113.06529 | 24647 ft | 384 kts | 285° |
| 2026-04-23 21:41 | 33.62146 | -113.09600 | 25044 ft | 385 kts | 285° |
| 2026-04-23 21:41 | 33.62931 | -113.12672 | 25441 ft | 387 kts | 284° |
| 2026-04-23 21:41 | 33.63720 | -113.15766 | 25833 ft | 388 kts | 284° |
| 2026-04-23 21:41 | 33.64507 | -113.18866 | 26233 ft | 389 kts | 284° |
| 2026-04-23 21:42 | 33.65297 | -113.21976 | 26639 ft | 390 kts | 284° |
| 2026-04-23 21:42 | 33.66090 | -113.25095 | 27049 ft | 391 kts | 284° |
| 2026-04-23 21:42 | 33.66886 | -113.28228 | 27447 ft | 392 kts | 284° |
| 2026-04-23 21:42 | 33.67684 | -113.31359 | 27820 ft | 394 kts | 283° |
| 2026-04-23 21:43 | 33.68487 | -113.34510 | 28197 ft | 395 kts | 283° |
| 2026-04-23 21:43 | 33.69281 | -113.37629 | 28552 ft | 396 kts | 283° |
| 2026-04-23 21:43 | 33.70083 | -113.40798 | 28910 ft | 398 kts | 283° |
| 2026-04-23 21:43 | 33.70887 | -113.43980 | 29259 ft | 399 kts | 283° |
| 2026-04-23 21:44 | 33.71692 | -113.47181 | 29627 ft | 401 kts | 282° |
| 2026-04-23 21:44 | 33.72497 | -113.50389 | 29917 ft | 402 kts | 282° |
| 2026-04-23 21:44 | 33.73295 | -113.53564 | 29971 ft | 391 kts | 282° |
| 2026-04-23 21:45 | 33.74843 | -113.59709 | 29967 ft | 381 kts | 282° |
| 2026-04-23 21:45 | 33.76360 | -113.65807 | 29967 ft | 381 kts | 282° |
| 2026-04-23 21:46 | 33.77885 | -113.71908 | 29956 ft | 381 kts | 282° |
| 2026-04-23 21:46 | 33.79416 | -113.78013 | 29949 ft | 382 kts | 282° |
| 2026-04-23 21:47 | 33.81256 | -113.84038 | 29935 ft | 386 kts | 287° |
| 2026-04-23 21:47 | 33.83293 | -113.90005 | 29922 ft | 386 kts | 287° |
| 2026-04-23 21:48 | 33.85318 | -113.95980 | 29918 ft | 386 kts | 287° |
| 2026-04-23 21:48 | 33.87343 | -114.01962 | 29913 ft | 386 kts | 287° |
| 2026-04-23 21:49 | 33.89365 | -114.07949 | 29909 ft | 386 kts | 287° |
| 2026-04-23 21:49 | 33.90982 | -114.14047 | 29912 ft | 381 kts | 278° |
| 2026-04-23 21:50 | 33.92034 | -114.20293 | 29913 ft | 381 kts | 278° |
| 2026-04-23 21:50 | 33.93104 | -114.26543 | 29914 ft | 381 kts | 278° |
| 2026-04-23 21:51 | 33.94185 | -114.32918 | 29913 ft | 398 kts | 278° |
| 2026-04-23 21:51 | 33.95289 | -114.39526 | 29910 ft | 404 kts | 278° |
| 2026-04-23 21:52 | 33.96404 | -114.46165 | 29910 ft | 405 kts | 278° |
| 2026-04-23 21:52 | 33.97517 | -114.52770 | 29909 ft | 404 kts | 278° |
| 2026-04-23 21:53 | 33.98627 | -114.59408 | 29911 ft | 404 kts | 278° |
| 2026-04-23 21:53 | 33.99733 | -114.66051 | 29917 ft | 405 kts | 278° |
| 2026-04-23 21:54 | 34.00837 | -114.72701 | 29922 ft | 405 kts | 278° |
| 2026-04-23 21:54 | 34.01937 | -114.79361 | 29927 ft | 405 kts | 278° |
| 2026-04-23 21:55 | 34.03034 | -114.86016 | 29931 ft | 404 kts | 278° |
| 2026-04-23 21:55 | 34.03937 | -114.91543 | 29932 ft | 404 kts | 278° |
| 2026-04-23 21:56 | 34.05022 | -114.98201 | 29932 ft | 405 kts | 278° |
| 2026-04-23 21:56 | 34.06108 | -115.04872 | 29936 ft | 405 kts | 278° |
| 2026-04-23 21:57 | 34.07194 | -115.11534 | 29943 ft | 405 kts | 278° |
| 2026-04-23 21:57 | 34.08279 | -115.18201 | 29948 ft | 405 kts | 278° |
| 2026-04-23 21:58 | 34.09360 | -115.24880 | 29954 ft | 406 kts | 278° |
| 2026-04-23 21:58 | 34.10439 | -115.31565 | 29952 ft | 406 kts | 278° |
| 2026-04-23 21:59 | 34.11513 | -115.38245 | 29951 ft | 406 kts | 278° |
| 2026-04-23 21:59 | 34.12581 | -115.44933 | 29950 ft | 406 kts | 278° |
| 2026-04-23 22:00 | 34.14181 | -115.54999 | 29958 ft | 407 kts | 278° |
| 2026-04-23 22:00 | 34.15240 | -115.61718 | 29962 ft | 408 kts | 278° |
| 2026-04-23 22:01 | 34.16182 | -115.68461 | 29958 ft | 406 kts | 271° |
| 2026-04-23 22:01 | 34.15788 | -115.75233 | 29967 ft | 405 kts | 263° |
| 2026-04-23 22:02 | 34.15134 | -115.81991 | 29987 ft | 406 kts | 263° |
| 2026-04-23 22:02 | 34.14476 | -115.88772 | 29999 ft | 407 kts | 263° |
| 2026-04-23 22:03 | 34.13810 | -115.95561 | 30015 ft | 408 kts | 263° |
| 2026-04-23 22:03 | 34.13143 | -116.02371 | 30022 ft | 409 kts | 263° |
| 2026-04-23 22:04 | 34.12489 | -116.09202 | 30025 ft | 410 kts | 263° |
| 2026-04-23 22:04 | 34.11817 | -116.16051 | 30024 ft | 412 kts | 263° |
| 2026-04-23 22:05 | 34.11127 | -116.22926 | 30016 ft | 413 kts | 263° |
| 2026-04-23 22:05 | 34.10430 | -116.29826 | 30006 ft | 415 kts | 264° |
| 2026-04-23 22:06 | 34.09739 | -116.36520 | 29993 ft | 416 kts | 263° |
| 2026-04-23 22:06 | 34.08993 | -116.43440 | 29947 ft | 411 kts | 263° |
| 2026-04-23 22:07 | 34.08626 | -116.46799 | 29962 ft | 399 kts | 263° |
| 2026-04-23 22:07 | 34.08268 | -116.50098 | 29961 ft | 395 kts | 263° |
| 2026-04-23 22:07 | 34.07910 | -116.53387 | 29764 ft | 396 kts | 263° |
| 2026-04-23 22:07 | 34.07554 | -116.56660 | 29204 ft | 392 kts | 263° |
| 2026-04-23 22:08 | 34.07205 | -116.59895 | 28720 ft | 386 kts | 264° |
| 2026-04-23 22:08 | 34.06886 | -116.63089 | 28206 ft | 381 kts | 264° |
| 2026-04-23 22:08 | 34.06599 | -116.66219 | 27993 ft | 370 kts | 265° |
| 2026-04-23 22:08 | 34.06324 | -116.69277 | 27624 ft | 364 kts | 264° |
| 2026-04-23 22:09 | 34.06054 | -116.72301 | 27157 ft | 361 kts | 264° |
| 2026-04-23 22:09 | 34.05780 | -116.75291 | 26663 ft | 358 kts | 265° |
| 2026-04-23 22:09 | 34.05508 | -116.78267 | 26208 ft | 355 kts | 265° |
| 2026-04-23 22:09 | 34.05235 | -116.81218 | 25778 ft | 353 kts | 265° |
| 2026-04-23 22:10 | 34.04959 | -116.84150 | 25374 ft | 351 kts | 264° |
| 2026-04-23 22:10 | 34.04683 | -116.87068 | 24966 ft | 349 kts | 265° |
| 2026-04-23 22:10 | 34.04394 | -116.89968 | 24548 ft | 347 kts | 263° |
| 2026-04-23 22:10 | 34.04052 | -116.92831 | 24143 ft | 345 kts | 263° |
| 2026-04-23 22:11 | 34.03679 | -116.95691 | 23639 ft | 348 kts | 262° |
| 2026-04-23 22:11 | 34.03287 | -116.98603 | 23050 ft | 351 kts | 262° |
| 2026-04-23 22:11 | 34.02904 | -117.01427 | 22854 ft | 341 kts | 262° |
| 2026-04-23 22:11 | 34.02523 | -117.04267 | 22480 ft | 337 kts | 262° |
| 2026-04-23 22:12 | 34.02166 | -117.07011 | 22049 ft | 334 kts | 262° |
| 2026-04-23 22:12 | 34.01826 | -117.09773 | 21607 ft | 331 kts | 263° |
| 2026-04-23 22:12 | 34.01508 | -117.12514 | 21142 ft | 329 kts | 263° |
| 2026-04-23 22:12 | 34.01197 | -117.15239 | 20686 ft | 327 kts | 263° |
| 2026-04-23 22:13 | 34.00888 | -117.17945 | 20255 ft | 325 kts | 263° |
| 2026-04-23 22:13 | 34.00578 | -117.20631 | 19822 ft | 323 kts | 263° |
| 2026-04-23 22:13 | 34.00265 | -117.23302 | 19393 ft | 320 kts | 263° |
| 2026-04-23 22:13 | 33.99952 | -117.25954 | 18944 ft | 319 kts | 263° |
| 2026-04-23 22:14 | 33.99634 | -117.28594 | 18524 ft | 317 kts | 263° |
| 2026-04-23 22:14 | 33.99315 | -117.31238 | 17784 ft | 323 kts | 263° |
| 2026-04-23 22:14 | 33.98997 | -117.33910 | 17284 ft | 317 kts | 263° |
| 2026-04-23 22:14 | 33.98691 | -117.36506 | 16688 ft | 310 kts | 263° |
| 2026-04-23 22:15 | 33.98388 | -117.39068 | 16017 ft | 307 kts | 263° |
| 2026-04-23 22:15 | 33.98089 | -117.41619 | 15440 ft | 308 kts | 263° |
| 2026-04-23 22:15 | 33.97788 | -117.44165 | 14991 ft | 306 kts | 263° |
| 2026-04-23 22:15 | 33.97488 | -117.46706 | 14550 ft | 305 kts | 263° |
| 2026-04-23 22:16 | 33.97399 | -117.49249 | 14122 ft | 303 kts | 275° |
| 2026-04-23 22:16 | 33.97756 | -117.51741 | 13679 ft | 302 kts | 282° |
| 2026-04-23 22:16 | 33.98205 | -117.54211 | 13207 ft | 302 kts | 281° |
| 2026-04-23 22:16 | 33.98645 | -117.56682 | 12722 ft | 301 kts | 281° |
| 2026-04-23 22:17 | 33.99077 | -117.59149 | 12256 ft | 300 kts | 281° |
| 2026-04-23 22:17 | 33.99508 | -117.61608 | 11798 ft | 300 kts | 281° |
| 2026-04-23 22:17 | 33.99942 | -117.64066 | 11274 ft | 302 kts | 282° |
| 2026-04-23 22:17 | 34.00380 | -117.66555 | 10705 ft | 306 kts | 281° |
| 2026-04-23 22:18 | 34.00564 | -117.69025 | 10455 ft | 292 kts | 268° |
| 2026-04-23 22:18 | 34.00378 | -117.71394 | 10210 ft | 279 kts | 264° |
| 2026-04-23 22:18 | 34.00155 | -117.73696 | 10053 ft | 276 kts | 264° |
| 2026-04-23 22:18 | 33.99933 | -117.76000 | 9839 ft | 278 kts | 264° |
| 2026-04-23 22:19 | 33.99706 | -117.78311 | 9439 ft | 278 kts | 264° |
| 2026-04-23 22:19 | 33.99481 | -117.80621 | 9081 ft | 276 kts | 264° |
| 2026-04-23 22:19 | 33.99257 | -117.82922 | 8733 ft | 275 kts | 264° |
| 2026-04-23 22:19 | 33.99031 | -117.85201 | 8388 ft | 273 kts | 264° |
| 2026-04-23 22:20 | 33.98806 | -117.87464 | 8044 ft | 271 kts | 264° |
| 2026-04-23 22:20 | 33.98581 | -117.89721 | 7697 ft | 272 kts | 264° |
| 2026-04-23 22:20 | 33.98360 | -117.91987 | 7345 ft | 273 kts | 265° |
| 2026-04-23 22:20 | 33.98141 | -117.94257 | 7011 ft | 273 kts | 265° |
| 2026-04-23 22:21 | 33.97921 | -117.96528 | 6663 ft | 273 kts | 264° |
| 2026-04-23 22:21 | 33.97698 | -117.98792 | 6318 ft | 273 kts | 264° |
| 2026-04-23 22:21 | 33.97474 | -118.01061 | 5957 ft | 272 kts | 264° |
| 2026-04-23 22:21 | 33.97247 | -118.03322 | 5612 ft | 271 kts | 264° |
| 2026-04-23 22:22 | 33.97025 | -118.05542 | 5278 ft | 270 kts | 264° |
| 2026-04-23 22:22 | 33.96802 | -118.07785 | 4937 ft | 269 kts | 264° |
| 2026-04-23 22:22 | 33.96585 | -118.09947 | 4594 ft | 269 kts | 263° |
| 2026-04-23 22:22 | 33.96358 | -118.12177 | 4232 ft | 267 kts | 263° |
| 2026-04-23 22:23 | 33.96140 | -118.14382 | 3897 ft | 261 kts | 263° |
| 2026-04-23 22:23 | 33.95931 | -118.16513 | 3590 ft | 250 kts | 263° |
| 2026-04-23 22:23 | 33.95729 | -118.18538 | 3297 ft | 238 kts | 263° |
| 2026-04-23 22:23 | 33.95535 | -118.20473 | 3015 ft | 231 kts | 263° |
| 2026-04-23 22:24 | 33.95346 | -118.22349 | 2687 ft | 219 kts | 263° |
| 2026-04-23 22:24 | 33.95168 | -118.24112 | 2422 ft | 206 kts | 263° |
| 2026-04-23 22:24 | 33.95003 | -118.25756 | 2145 ft | 191 kts | 262° |
| 2026-04-23 22:24 | 33.94848 | -118.27297 | 1899 ft | 177 kts | 262° |
| 2026-04-23 22:25 | 33.94707 | -118.28691 | 1692 ft | 157 kts | 262° |
| 2026-04-23 22:25 | 33.94568 | -118.29927 | 1460 ft | 146 kts | 260° |
| 2026-04-23 22:25 | 33.94453 | -118.31098 | 1290 ft | 137 kts | 265° |
| 2026-04-23 22:25 | 33.94348 | -118.32248 | 1093 ft | 138 kts | 263° |
| 2026-04-23 22:26 | 33.94242 | -118.33401 | 927 ft | 138 kts | 262° |
| 2026-04-23 22:26 | 33.94118 | -118.34547 | 730 ft | 139 kts | 262° |
| 2026-04-23 22:26 | 33.94003 | -118.35693 | 566 ft | 137 kts | 263° |
| 2026-04-23 22:26 | 33.93887 | -118.36827 | 404 ft | 138 kts | 265° |
| 2026-04-23 22:27 | 33.93769 | -118.37960 | 215 ft | 135 kts | 264° |
| 2026-04-23 22:27 | 33.93657 | -118.39051 | 109 ft | 118 kts | 263° |
| 2026-04-23 22:27 | 33.93576 | -118.39845 | 111 ft | 71 kts | 263° |
| 2026-04-23 22:27 | 33.93539 | -118.40223 | 111 ft | 33 kts | 264° |
| 2026-04-23 22:28 | 33.93545 | -118.40476 | 113 ft | 28 kts | 283° |
| 2026-04-23 22:28 | 33.93585 | -118.40612 | 107 ft | 15 kts | 291° |
| 2026-04-23 22:28 | 33.93597 | -118.40740 | 106 ft | 16 kts | 262° |
| 2026-04-23 22:28 | 33.93617 | -118.40864 | 106 ft | 12 kts | 300° |
| 2026-04-23 22:29 | 33.93686 | -118.40898 | 107 ft | 12 kts | 353° |
| 2026-04-23 22:29 | 33.93758 | -118.40907 | 104 ft | 11 kts | 2° |
| 2026-04-23 22:29 | 33.93791 | -118.40848 | 102 ft | 4 kts | 81° |
| 2026-04-23 22:29 | 33.93792 | -118.40837 | 102 ft | 2 kts | 82° |
| 2026-04-23 22:30 | 33.93793 | -118.40829 | 102 ft | 1 kts | 83° |
| 2026-04-23 22:30 | 33.93793 | -118.40824 | 102 ft | 0 kts | 83° |
| 2026-04-23 22:30 | 33.93797 | -118.40795 | 101 ft | 8 kts | 79° |
| 2026-04-23 22:31 | 33.93844 | -118.40743 | 99 ft | 12 kts | 20° |
| 2026-04-23 22:31 | 33.93895 | -118.40655 | 98 ft | 15 kts | 82° |
| 2026-04-23 22:31 | 33.93914 | -118.40554 | 98 ft | 11 kts | 48° |
| 2026-04-23 22:31 | 33.93995 | -118.40549 | 98 ft | 13 kts | 353° |
| 2026-04-23 22:32 | 33.94069 | -118.40560 | 95 ft | 7 kts | 353° |
| 2026-04-23 22:32 | 33.94114 | -118.40590 | 97 ft | 8 kts | 285° |
| 2026-04-23 22:32 | 33.94113 | -118.40625 | 98 ft | 3 kts | 264° |
| 2026-04-23 22:32 | 33.94112 | -118.40632 | 99 ft | 0 kts | 264° |